createdAt,value
2019-03-22T00:02:16.136Z,6.85
2019-03-22T00:07:29.686Z,6.84
2019-03-22T00:09:57.920Z,6.81
2019-03-22T00:12:28.626Z,6.68
2019-03-22T00:15:05.429Z,6.72
2019-03-22T00:20:15.005Z,6.40
2019-03-22T00:22:55.086Z,6.41
2019-03-22T00:25:25.997Z,6.44
2019-03-22T00:27:59.483Z,6.57
2019-03-22T00:30:29.131Z,6.95
2019-03-22T00:33:01.439Z,6.69
2019-03-22T00:35:30.685Z,6.36
2019-03-22T00:38:02.038Z,6.30
2019-03-22T00:40:36.054Z,6.31
2019-03-22T00:43:08.604Z,6.17
2019-03-22T00:45:38.526Z,6.24
2019-03-22T00:48:08.049Z,6.70
2019-03-22T00:53:28.644Z,6.28
2019-03-22T00:56:02.470Z,6.09
2019-03-22T00:58:30.007Z,6.14
2019-03-22T01:01:02.384Z,6.00
2019-03-22T01:03:31.564Z,6.62
2019-03-22T01:06:01.697Z,6.28
2019-03-22T01:08:46.956Z,6.37
2019-03-22T01:11:19.295Z,6.82
2019-03-22T01:13:50.625Z,6.42
2019-03-22T01:19:05.506Z,6.32
2019-03-22T01:21:36.522Z,5.90
2019-03-22T01:24:09.242Z,5.63
2019-03-22T01:26:41.238Z,5.51
2019-03-22T01:29:13.173Z,5.56
2019-03-22T01:31:43.681Z,5.48
2019-03-22T01:36:57.727Z,5.51
2019-03-22T01:39:29.974Z,5.56
2019-03-22T01:41:57.269Z,5.50
2019-03-22T01:44:29.943Z,5.50
2019-03-22T01:46:58.378Z,5.52
2019-03-22T01:49:27.865Z,5.36
2019-03-22T01:51:58.325Z,5.13
2019-03-22T01:54:27.666Z,5.05
2019-03-22T01:56:59.360Z,5.16
2019-03-22T01:59:31.606Z,5.39
2019-03-22T02:02:00.958Z,5.40
2019-03-22T02:04:30.687Z,5.49
2019-03-22T02:07:02.138Z,5.38
2019-03-22T02:09:32.807Z,5.49
2019-03-22T02:12:02.209Z,5.38
2019-03-22T02:14:31.893Z,5.55
2019-03-22T02:17:01.372Z,5.44
2019-03-22T02:19:32.132Z,5.44
2019-03-22T02:22:03.284Z,5.46
2019-03-22T02:24:34.270Z,5.70
2019-03-22T02:27:05.683Z,5.77
2019-03-22T02:29:37.152Z,5.64
2019-03-22T02:32:08.095Z,5.29
2019-03-22T02:34:41.021Z,5.39
2019-03-22T02:37:11.093Z,5.71
2019-03-22T02:39:42.321Z,5.74
2019-03-22T02:42:15.061Z,5.60
2019-03-22T02:44:47.841Z,5.12
2019-03-22T02:47:18.508Z,4.84
2019-03-22T02:49:53.222Z,4.85
2019-03-22T02:52:23.293Z,4.94
2019-03-22T02:54:56.986Z,4.47
2019-03-22T02:57:25.929Z,4.61
2019-03-22T02:59:56.321Z,4.65
2019-03-22T03:02:27.570Z,4.63
2019-03-22T03:05:00.971Z,4.65
2019-03-22T03:07:32.102Z,4.55
2019-03-22T03:10:02.848Z,4.51
2019-03-22T03:12:32.965Z,4.51
2019-03-22T03:15:03.281Z,4.46
2019-03-22T03:17:35.219Z,4.53
2019-03-22T03:20:06.267Z,4.53
2019-03-22T03:22:36.397Z,4.48
2019-03-22T03:25:11.311Z,4.81
2019-03-22T03:27:41.298Z,4.42
2019-03-22T03:32:56.443Z,4.62
2019-03-22T03:35:27.665Z,4.77
2019-03-22T03:37:57.987Z,4.77
2019-03-22T03:40:28.950Z,4.85
2019-03-22T03:42:59.350Z,4.90
2019-03-22T03:45:41.345Z,4.84
2019-03-22T03:50:55.290Z,4.82
2019-03-22T03:53:26.268Z,5.12
2019-03-22T03:55:56.513Z,5.38
2019-03-22T03:58:27.966Z,5.03
2019-03-22T04:00:58.893Z,4.88
2019-03-22T04:03:30.309Z,4.85
2019-03-22T04:06:01.268Z,4.90
2019-03-22T04:08:34.338Z,5.17
2019-03-22T04:11:07.461Z,4.88
2019-03-22T04:13:37.345Z,5.28
2019-03-22T04:18:48.659Z,4.99
2019-03-22T04:21:18.904Z,4.79
2019-03-22T04:23:49.604Z,5.27
2019-03-22T04:26:20.427Z,4.95
2019-03-22T04:28:49.534Z,4.93
2019-03-22T04:31:21.525Z,5.17
2019-03-22T04:36:31.277Z,4.89
2019-03-22T04:39:09.085Z,4.84
2019-03-22T04:41:41.585Z,4.66
2019-03-22T04:44:14.524Z,4.56
2019-03-22T04:46:42.924Z,4.45
2019-03-22T04:49:13.418Z,4.50
2019-03-22T04:51:44.379Z,4.43
2019-03-22T04:54:16.186Z,4.81
2019-03-22T04:56:46.269Z,4.61
2019-03-22T04:59:19.872Z,4.69
2019-03-22T05:01:53.781Z,4.66
2019-03-22T05:04:25.606Z,4.68
2019-03-22T05:06:56.454Z,4.52
2019-03-22T05:09:26.367Z,4.85
2019-03-22T05:11:56.712Z,4.63
2019-03-22T05:14:33.149Z,4.68
2019-03-22T05:17:07.378Z,4.63
2019-03-22T05:19:42.409Z,4.48
2019-03-22T05:22:14.375Z,4.78
2019-03-22T05:24:49.728Z,4.76
2019-03-22T05:27:14.330Z,4.59
2019-03-22T05:29:47.369Z,4.50
2019-03-22T05:32:19.168Z,4.36
2019-03-22T05:34:52.444Z,4.55
2019-03-22T05:37:23.665Z,4.59
2019-03-22T05:39:55.528Z,4.52
2019-03-22T05:42:25.141Z,4.49
2019-03-22T05:44:57.451Z,4.74
2019-03-22T05:47:33.405Z,5.01
2019-03-22T05:50:06.787Z,4.65
2019-03-22T05:52:39.868Z,4.60
2019-03-22T05:55:12.631Z,4.56
2019-03-22T05:57:49.095Z,4.53
2019-03-22T06:00:18.328Z,5.05
2019-03-22T06:02:49.254Z,4.86
2019-03-22T06:05:18.688Z,4.95
2019-03-22T06:07:49.383Z,4.93
2019-03-22T06:10:21.041Z,4.87
2019-03-22T06:12:50.082Z,4.85
2019-03-22T06:15:20.634Z,5.04
2019-03-22T06:17:52.322Z,5.17
2019-03-22T06:20:23.545Z,5.32
2019-03-22T06:22:56.623Z,5.44
2019-03-22T06:25:25.649Z,5.63
2019-03-22T06:27:55.365Z,5.82
2019-03-22T06:30:30.164Z,5.98
2019-03-22T06:35:44.127Z,6.39
2019-03-22T06:38:13.939Z,6.59
2019-03-22T06:40:43.947Z,6.74
2019-03-22T06:43:13.892Z,6.82
2019-03-22T06:45:43.910Z,6.87
2019-03-22T06:48:15.233Z,7.16
2019-03-22T06:50:47.013Z,7.18
2019-03-22T06:53:21.833Z,7.14
2019-03-22T06:55:52.561Z,7.22
2019-03-22T06:58:24.110Z,7.36
2019-03-22T07:03:32.825Z,7.61
2019-03-22T07:06:06.575Z,7.78
2019-03-22T07:08:36.165Z,7.67
2019-03-22T07:11:05.853Z,7.76
2019-03-22T07:13:39.491Z,7.81
2019-03-22T07:16:10.081Z,7.62
2019-03-22T07:18:42.105Z,7.68
2019-03-22T07:21:11.600Z,7.66
2019-03-22T07:23:41.545Z,7.69
2019-03-22T07:26:10.785Z,7.82
2019-03-22T07:28:40.814Z,7.88
2019-03-22T07:31:10.950Z,7.99
2019-03-22T07:36:22.748Z,8.42
2019-03-22T07:38:54.331Z,8.59
2019-03-22T07:41:27.801Z,8.56
2019-03-22T07:43:59.849Z,8.48
2019-03-22T07:46:31.449Z,8.59
2019-03-22T07:49:03.690Z,8.69
2019-03-22T07:51:35.752Z,9.07
2019-03-22T07:54:06.167Z,9.19
2019-03-22T07:56:37.954Z,9.03
2019-03-22T07:59:16.073Z,9.29
2019-03-22T08:01:46.776Z,9.17
2019-03-22T08:06:57.359Z,9.42
2019-03-22T08:09:32.622Z,9.68
2019-03-22T08:12:06.098Z,9.78
2019-03-22T08:14:34.001Z,9.87
2019-03-22T08:17:06.928Z,10.11
2019-03-22T08:19:37.696Z,10.14
2019-03-22T08:22:08.594Z,10.20
2019-03-22T08:24:39.680Z,10.35
2019-03-22T08:27:10.876Z,10.50
2019-03-22T08:29:43.373Z,10.40
2019-03-22T08:32:13.671Z,10.60
2019-03-22T08:34:42.799Z,10.64
2019-03-22T08:37:13.387Z,10.69
2019-03-22T08:39:43.936Z,10.94
2019-03-22T08:42:13.881Z,11.15
2019-03-22T08:44:44.791Z,11.19
2019-03-22T08:47:16.371Z,11.60
2019-03-22T08:49:48.840Z,11.45
2019-03-22T08:52:18.445Z,11.38
2019-03-22T08:54:49.282Z,11.48
2019-03-22T08:57:24.730Z,11.52
2019-03-22T08:59:54.565Z,11.69
2019-03-22T09:05:11.368Z,11.92
2019-03-22T09:07:43.347Z,11.98
2019-03-22T09:12:56.969Z,12.26
2019-03-22T09:15:40.270Z,12.39
2019-03-22T09:17:59.793Z,12.31
2019-03-22T09:20:29.785Z,12.28
2019-03-22T09:22:59.572Z,12.55
2019-03-22T09:25:31.567Z,12.38
2019-03-22T09:28:01.456Z,12.65
2019-03-22T09:30:30.541Z,13.03
2019-03-22T09:33:00.534Z,13.15
2019-03-22T09:35:33.789Z,13.23
2019-03-22T09:38:12.912Z,13.49
2019-03-22T09:40:36.380Z,13.35
2019-03-22T09:43:04.708Z,13.58
2019-03-22T09:45:38.154Z,13.53
2019-03-22T09:48:10.734Z,13.77
2019-03-22T09:50:43.005Z,14.04
2019-03-22T09:53:12.428Z,14.06
2019-03-22T09:55:47.786Z,14.40
2019-03-22T09:58:19.088Z,14.48
2019-03-22T10:00:49.166Z,14.27
2019-03-22T10:03:21.256Z,14.92
2019-03-22T10:05:52.355Z,14.87
2019-03-22T10:08:21.993Z,15.00
2019-03-22T10:10:55.146Z,14.91
2019-03-22T10:13:24.461Z,15.18
2019-03-22T10:15:58.321Z,15.20
2019-03-22T10:18:25.064Z,15.02
2019-03-22T10:20:57.955Z,15.23
2019-03-22T10:23:27.394Z,15.67
2019-03-22T10:26:01.898Z,15.35
2019-03-22T10:28:34.718Z,15.23
2019-03-22T10:31:03.844Z,15.57
2019-03-22T10:33:34.563Z,15.53
2019-03-22T10:38:43.846Z,15.78
2019-03-22T10:41:18.173Z,15.84
2019-03-22T10:43:46.121Z,16.11
2019-03-22T10:46:19.037Z,15.96
2019-03-22T10:48:50.353Z,15.53
2019-03-22T10:51:21.418Z,15.97
2019-03-22T10:53:51.183Z,16.36
2019-03-22T10:56:21.335Z,16.40
2019-03-22T10:58:51.134Z,16.29
2019-03-22T11:04:01.178Z,16.41
2019-03-22T11:06:31.370Z,16.68
2019-03-22T11:09:06.075Z,16.94
2019-03-22T11:11:35.145Z,16.66
2019-03-22T11:14:08.135Z,16.90
2019-03-22T11:16:40.200Z,16.93
2019-03-22T11:19:11.274Z,16.80
2019-03-22T11:21:41.053Z,16.88
2019-03-22T11:24:11.351Z,17.27
2019-03-22T11:26:41.749Z,17.04
2019-03-22T11:29:14.174Z,17.13
2019-03-22T11:31:44.508Z,16.69
2019-03-22T11:34:13.912Z,17.02
2019-03-22T11:36:45.249Z,17.18
2019-03-22T11:39:16.012Z,17.25
2019-03-22T11:41:45.377Z,17.21
2019-03-22T11:44:15.791Z,17.26
2019-03-22T11:46:45.699Z,17.37
2019-03-22T11:49:15.918Z,17.68
2019-03-22T11:51:47.608Z,17.77
2019-03-22T11:54:21.123Z,17.50
2019-03-22T11:56:53.457Z,17.57
2019-03-22T11:59:25.343Z,17.62
2019-03-22T12:01:58.489Z,17.69
2019-03-22T12:04:27.797Z,17.85
2019-03-22T12:07:05.723Z,17.57
2019-03-22T12:09:36.554Z,17.65
2019-03-22T12:14:47.140Z,17.96
2019-03-22T12:17:18.777Z,17.98
2019-03-22T12:22:30.501Z,18.05
2019-03-22T12:27:42.712Z,18.33
2019-03-22T12:30:14.773Z,18.50
2019-03-22T12:32:44.376Z,18.69
2019-03-22T12:35:14.155Z,18.61
2019-03-22T12:37:45.561Z,18.58
2019-03-22T12:40:15.166Z,18.46
2019-03-22T12:42:46.979Z,18.22
2019-03-22T12:45:22.578Z,18.46
2019-03-22T12:47:55.479Z,18.59
2019-03-22T12:50:22.124Z,19.19
2019-03-22T12:52:55.523Z,19.37
2019-03-22T12:55:24.844Z,19.41
2019-03-22T12:57:55.605Z,19.11
2019-03-22T13:00:27.472Z,19.16
2019-03-22T13:02:58.508Z,19.37
2019-03-22T13:05:29.517Z,19.85
2019-03-22T13:08:00.483Z,20.06
2019-03-22T13:10:31.754Z,19.59
2019-03-22T13:13:00.250Z,20.32
2019-03-22T13:15:30.454Z,20.01
2019-03-22T13:18:02.417Z,20.02
2019-03-22T13:20:33.153Z,20.11
2019-03-22T13:23:01.853Z,19.44
2019-03-22T13:25:31.264Z,19.19
2019-03-22T13:28:01.919Z,19.09
2019-03-22T13:30:35.115Z,19.36
2019-03-22T13:33:09.128Z,18.96
2019-03-22T13:35:40.664Z,18.85
2019-03-22T13:38:13.291Z,19.14
2019-03-22T13:40:42.727Z,19.43
2019-03-22T13:43:13.940Z,18.98
2019-03-22T13:45:42.626Z,19.23
2019-03-22T13:48:16.106Z,19.27
2019-03-22T13:50:45.091Z,19.54
2019-03-22T13:53:14.329Z,19.67
2019-03-22T13:55:47.420Z,19.58
2019-03-22T13:58:16.406Z,19.60
2019-03-22T14:00:46.037Z,19.58
2019-03-22T14:03:14.605Z,19.63
2019-03-22T14:05:46.561Z,19.71
2019-03-22T14:08:18.504Z,19.53
2019-03-22T14:10:48.109Z,19.50
2019-03-22T14:13:20.673Z,19.83
2019-03-22T14:15:52.229Z,19.83
2019-03-22T14:18:25.783Z,19.43
2019-03-22T14:20:55.881Z,19.62
2019-03-22T14:23:25.964Z,19.88
2019-03-22T14:26:01.810Z,19.46
2019-03-22T14:28:34.552Z,19.79
2019-03-22T14:31:05.815Z,19.82
2019-03-22T14:33:39.553Z,20.04
2019-03-22T14:36:11.985Z,20.03
2019-03-22T14:38:44.192Z,20.45
2019-03-22T14:43:55.624Z,20.16
2019-03-22T14:46:29.070Z,19.96
2019-03-22T14:48:59.649Z,20.25
2019-03-22T14:51:28.562Z,19.76
2019-03-22T14:53:59.534Z,19.54
2019-03-22T14:56:31.973Z,19.35
2019-03-22T14:59:06.578Z,18.92
2019-03-22T15:01:36.413Z,19.35
2019-03-22T15:04:06.715Z,19.12
2019-03-22T15:06:38.112Z,18.93
2019-03-22T15:09:10.641Z,18.80
2019-03-22T15:11:42.705Z,19.02
2019-03-22T15:14:28.259Z,19.46
2019-03-22T15:17:09.048Z,19.43
2019-03-22T15:19:52.632Z,19.56
2019-03-22T15:22:38.290Z,19.59
2019-03-22T15:25:33.735Z,19.58
2019-03-22T15:28:21.194Z,19.61
2019-03-22T15:30:58.231Z,19.62
2019-03-22T15:33:46.433Z,19.68
2019-03-22T15:36:21.558Z,19.62
2019-03-22T15:39:15.958Z,19.60
2019-03-22T15:41:46.313Z,19.22
2019-03-22T15:44:16.551Z,19.79
2019-03-22T15:46:45.585Z,19.40
2019-03-22T15:49:13.877Z,19.28
2019-03-22T15:51:46.468Z,19.09
2019-03-22T15:54:16.146Z,19.08
2019-03-22T15:56:46.896Z,19.16
2019-03-22T15:59:15.897Z,19.61
2019-03-22T16:01:46.527Z,19.64
2019-03-22T16:04:18.622Z,18.94
2019-03-22T16:06:50.766Z,18.59
2019-03-22T16:09:23.164Z,18.26
2019-03-22T16:11:57.754Z,18.38
2019-03-22T16:14:32.603Z,18.26
2019-03-22T16:17:05.489Z,17.90
2019-03-22T16:19:36.429Z,17.61
2019-03-22T16:22:06.415Z,17.38
2019-03-22T16:24:35.573Z,17.37
2019-03-22T16:27:07.583Z,17.19
2019-03-22T16:29:37.690Z,17.03
2019-03-22T16:32:07.508Z,16.82
2019-03-22T16:34:38.550Z,16.59
2019-03-22T16:37:08.473Z,16.47
2019-03-22T16:39:40.372Z,16.71
2019-03-22T16:42:08.385Z,16.84
2019-03-22T16:44:46.128Z,16.76
2019-03-22T16:47:22.796Z,16.76
2019-03-22T16:49:53.129Z,16.47
2019-03-22T16:52:22.244Z,16.16
2019-03-22T16:54:54.785Z,16.62
2019-03-22T16:57:27.018Z,16.45
2019-03-22T17:02:39.259Z,15.04
2019-03-22T17:05:09.067Z,15.11
2019-03-22T17:07:41.319Z,15.36
2019-03-22T17:12:52.271Z,15.47
2019-03-22T17:15:20.582Z,15.47
2019-03-22T17:17:50.073Z,15.91
2019-03-22T17:23:06.137Z,15.54
2019-03-22T17:25:38.295Z,15.41
2019-03-22T17:28:08.819Z,15.22
2019-03-22T17:30:38.078Z,15.03
2019-03-22T17:33:08.606Z,14.89
2019-03-22T17:35:41.240Z,14.81
2019-03-22T17:38:11.774Z,14.81
2019-03-22T17:40:44.059Z,14.82
2019-03-22T17:43:12.793Z,14.81
2019-03-22T17:45:41.538Z,14.87
2019-03-22T17:48:10.291Z,14.84
2019-03-22T17:50:41.792Z,14.80
2019-03-22T17:53:10.623Z,14.60
2019-03-22T17:55:42.447Z,14.63
2019-03-22T17:58:11.099Z,14.50
2019-03-22T18:00:40.709Z,14.33
2019-03-22T18:03:11.100Z,14.32
2019-03-22T18:05:39.770Z,14.65
2019-03-22T18:08:10.277Z,14.42
2019-03-22T18:10:40.281Z,14.19
2019-03-22T18:13:12.394Z,14.03
2019-03-22T18:15:41.479Z,13.86
2019-03-22T18:18:10.552Z,13.62
2019-03-22T18:20:40.142Z,13.63
2019-03-22T18:23:10.612Z,13.69
2019-03-22T18:25:39.401Z,14.15
2019-03-22T18:28:10.417Z,13.87
2019-03-22T18:30:39.462Z,13.59
2019-03-22T18:33:07.233Z,13.59
2019-03-22T18:35:43.240Z,13.87
2019-03-22T18:38:08.696Z,13.20
2019-03-22T18:40:40.342Z,13.07
2019-03-22T18:43:09.193Z,13.06
2019-03-22T18:45:38.903Z,13.16
2019-03-22T18:48:08.310Z,13.59
2019-03-22T18:50:37.919Z,13.69
2019-03-22T18:53:07.215Z,13.85
2019-03-22T18:55:37.054Z,13.93
2019-03-22T18:58:07.625Z,13.79
2019-03-22T19:00:37.679Z,13.76
2019-03-22T19:03:07.398Z,13.14
2019-03-22T19:05:36.346Z,12.84
2019-03-22T19:08:05.596Z,13.23
2019-03-22T19:10:35.756Z,13.39
2019-03-22T19:13:04.631Z,12.74
2019-03-22T19:15:33.886Z,13.07
2019-03-22T19:18:03.844Z,12.39
2019-03-22T19:20:34.925Z,12.81
2019-03-22T19:23:03.945Z,12.45
2019-03-22T19:25:34.627Z,12.38
2019-03-22T19:28:03.755Z,12.64
2019-03-22T19:30:33.026Z,12.14
2019-03-22T19:33:05.550Z,11.83
2019-03-22T19:35:33.509Z,11.51
2019-03-22T19:38:04.615Z,11.21
2019-03-22T19:40:35.094Z,11.55
2019-03-22T19:43:05.574Z,10.39
2019-03-22T19:45:35.611Z,10.20
2019-03-22T19:48:05.612Z,9.80
2019-03-22T19:50:34.507Z,9.70
2019-03-22T19:53:04.183Z,9.65
2019-03-22T19:55:33.711Z,9.45
2019-03-22T19:58:02.832Z,9.64
2019-03-22T20:00:31.958Z,9.94
2019-03-22T20:03:02.842Z,10.09
2019-03-22T20:05:33.086Z,10.31
2019-03-22T20:08:02.827Z,10.16
2019-03-22T20:10:33.136Z,10.74
2019-03-22T20:13:01.991Z,10.67
2019-03-22T20:15:31.096Z,9.92
2019-03-22T20:18:02.916Z,9.95
2019-03-22T20:20:36.142Z,10.05
2019-03-22T20:23:07.108Z,10.17
2019-03-22T20:25:40.140Z,9.87
2019-03-22T20:28:11.357Z,10.26
2019-03-22T20:30:43.424Z,9.59
2019-03-22T20:33:13.910Z,10.05
2019-03-22T20:35:46.336Z,9.48
2019-03-22T20:38:16.752Z,9.41
2019-03-22T20:40:47.383Z,9.25
2019-03-22T20:43:25.696Z,9.74
2019-03-22T20:45:50.569Z,9.75
2019-03-22T20:48:21.302Z,9.44
2019-03-22T20:50:53.262Z,9.73
2019-03-22T20:53:22.562Z,9.42
2019-03-22T20:55:53.378Z,10.01
2019-03-22T20:58:26.517Z,10.30
2019-03-22T21:00:58.245Z,9.79
2019-03-22T21:03:30.028Z,9.80
2019-03-22T21:06:00.055Z,9.59
2019-03-22T21:08:32.171Z,9.49
2019-03-22T21:11:04.133Z,9.39
2019-03-22T21:13:34.473Z,9.28
2019-03-22T21:16:05.033Z,9.35
2019-03-22T21:18:38.854Z,9.05
2019-03-22T21:21:08.541Z,9.76
2019-03-22T21:26:23.833Z,8.96
2019-03-22T21:28:54.031Z,9.06
2019-03-22T21:31:28.575Z,8.88
2019-03-22T21:33:58.619Z,9.30
2019-03-22T21:36:28.750Z,9.01
2019-03-22T21:38:59.551Z,9.02
2019-03-22T21:41:33.878Z,8.69
2019-03-22T21:44:09.341Z,8.64
2019-03-22T21:46:40.201Z,8.52
2019-03-22T21:49:13.273Z,9.35
2019-03-22T21:51:44.424Z,8.86
2019-03-22T21:54:14.826Z,8.52
2019-03-22T21:59:27.803Z,8.51
2019-03-22T22:01:58.799Z,8.51
2019-03-22T22:04:28.676Z,8.56
2019-03-22T22:06:59.048Z,8.45
2019-03-22T22:09:31.274Z,9.06
2019-03-22T22:12:02.355Z,9.26
2019-03-22T22:14:40.757Z,8.16
2019-03-22T22:17:04.250Z,7.51
2019-03-22T22:19:38.325Z,7.82
2019-03-22T22:22:12.558Z,7.82
2019-03-22T22:24:40.710Z,7.81
2019-03-22T22:27:17.360Z,7.85
2019-03-22T22:29:52.091Z,7.84
2019-03-22T22:32:31.163Z,7.73
2019-03-22T22:34:54.934Z,7.74
2019-03-22T22:37:24.338Z,7.96
2019-03-22T22:39:57.893Z,7.89
2019-03-22T22:42:28.107Z,7.88
2019-03-22T22:45:00.386Z,7.93
2019-03-22T22:47:30.725Z,7.74
2019-03-22T22:50:00.345Z,7.54
2019-03-22T22:52:31.513Z,7.58
2019-03-22T23:00:23.059Z,8.24
2019-03-22T23:02:54.506Z,7.67
2019-03-22T23:05:25.043Z,7.52
2019-03-22T23:07:56.687Z,7.36
2019-03-22T23:10:24.324Z,7.44
2019-03-22T23:12:55.577Z,7.35
2019-03-22T23:15:25.055Z,7.14
2019-03-22T23:17:55.811Z,7.58
2019-03-22T23:20:30.062Z,6.98
2019-03-22T23:23:03.045Z,6.89
2019-03-22T23:25:35.408Z,6.84
2019-03-22T23:28:05.491Z,6.90
2019-03-22T23:30:37.371Z,7.04
2019-03-22T23:33:11.489Z,6.93
2019-03-22T23:35:42.117Z,7.60
2019-03-22T23:38:11.547Z,7.04
2019-03-22T23:40:43.088Z,6.80
2019-03-22T23:43:15.845Z,6.70
2019-03-22T23:45:45.327Z,7.37
2019-03-22T23:48:16.174Z,6.75
2019-03-22T23:50:51.825Z,7.47
2019-03-22T23:53:21.493Z,6.73
2019-03-22T23:55:54.134Z,6.68
2019-03-22T23:58:24.084Z,6.61
